Time,TemperatureF,DewpointF,PressureIn,WindDirection,WindDirectionDegrees,WindSpeedMPH,WindSpeedGustMPH,Humidity,HourlyPrecipIn,Conditions,Clouds,dailyrainin,SoftwareType,DateUTC
2013-07-24 00:01:00,76.1,72.6,29.55,West,270,1.4,2.3,89,0.00,RA,,0.00,WeatherDisplay:10.37,2013-07-24 04:01:00,
2013-07-24 00:02:00,75.9,72.4,29.54,WSW,248,2.0,2.0,89,0.00,RA,,0.00,WeatherDisplay:10.37,2013-07-24 04:02:00,
2013-07-24 00:07:00,75.9,72.4,29.54,WSW,248,0.5,1.1,89,0.00,RA,,0.00,WeatherDisplay:10.37,2013-07-24 04:07:00,
2013-07-24 00:12:00,75.9,72.1,29.54,SW,225,0.2,0.2,88,0.00,CLR,,0.00,WeatherDisplay:10.37,2013-07-24 04:12:00,
2013-07-24 00:17:00,75.9,72.4,29.53,North,0,1.1,1.1,89,0.00,CLR,,0.00,WeatherDisplay:10.37,2013-07-24 04:17:00,
2013-07-24 00:22:00,75.9,72.1,29.53,NNW,338,0.0,1.1,88,0.00,CLR,,0.00,WeatherDisplay:10.37,2013-07-24 04:22:00,
2013-07-24 00:27:00,75.7,71.9,29.53,SW,225,0.9,2.3,88,0.00,CLR,,0.00,WeatherDisplay:10.37,2013-07-24 04:27:00,
2013-07-24 00:32:00,75.6,71.8,29.54,SW,225,1.6,2.3,88,0.00,CLR,,0.00,WeatherDisplay:10.37,2013-07-24 04:32:00,
2013-07-24 00:37:00,75.4,71.6,29.54,SSW,202,2.0,2.3,88,0.00,CLR,,0.00,WeatherDisplay:10.37,2013-07-24 04:37:00,
2013-07-24 00:42:00,75.2,71.4,29.54,South,180,3.1,3.1,88,0.00,CLR,,0.00,WeatherDisplay:10.37,2013-07-24 04:42:00,
2013-07-24 00:47:00,75.2,71.4,29.54,SW,225,0.7,2.3,88,0.00,CLR,,0.00,WeatherDisplay:10.37,2013-07-24 04:47:00,
2013-07-24 00:52:00,75.0,71.2,29.54,SSW,202,0.7,3.5,88,0.00,CLR,,0.00,WeatherDisplay:10.37,2013-07-24 04:52:00,
2013-07-24 00:57:00,74.8,71.4,29.54,SSE,158,0.2,1.1,89,0.00,CLR,,0.00,WeatherDisplay:10.37,2013-07-24 04:57:00,
2013-07-24 01:02:00,74.8,71.4,29.54,SW,225,2.4,2.4,89,0.00,CLR,,0.00,WeatherDisplay:10.37,2013-07-24 05:02:00,
2013-07-24 01:07:00,74.8,71.4,29.54,WSW,248,0.2,1.1,89,0.00,CLR,,0.00,WeatherDisplay:10.37,2013-07-24 05:07:00,
2013-07-24 01:12:00,74.7,71.2,29.54,WSW,248,0.5,2.3,89,0.00,CLR,,0.00,WeatherDisplay:10.37,2013-07-24 05:12:00,
2013-07-24 01:17:00,74.5,71.0,29.54,SW,225,0.5,2.3,89,0.00,CLR,,0.00,WeatherDisplay:10.37,2013-07-24 05:17:00,
2013-07-24 01:22:00,74.5,71.0,29.54,WSW,248,0.2,2.3,89,0.00,CLR,,0.00,WeatherDisplay:10.37,2013-07-24 05:22:00,
2013-07-24 01:27:00,74.3,70.8,29.54,SW,225,0.0,1.1,89,0.00,CLR,,0.00,WeatherDisplay:10.37,2013-07-24 05:27:00,
2013-07-24 01:32:00,74.1,70.7,29.54,WSW,248,1.8,2.3,89,0.00,CLR,,0.00,WeatherDisplay:10.37,2013-07-24 05:32:00,
2013-07-24 01:37:00,73.9,70.2,29.54,WSW,248,1.1,1.1,88,0.00,CLR,,0.00,WeatherDisplay:10.37,2013-07-24 05:37:00,
2013-07-24 01:42:00,73.8,70.0,29.54,WSW,248,0.0,1.1,88,0.00,CLR,,0.00,WeatherDisplay:10.37,2013-07-24 05:42:00,
2013-07-24 01:47:00,73.8,70.0,29.55,SSW,202,1.4,2.3,88,0.00,CLR,,0.00,WeatherDisplay:10.37,2013-07-24 05:47:00,
2013-07-24 01:52:00,73.6,69.8,29.54,SW,225,1.8,1.8,88,0.00,CLR,,0.00,WeatherDisplay:10.37,2013-07-24 05:52:00,
2013-07-24 01:57:00,73.4,69.6,29.54,SW,225,0.2,1.1,88,0.00,CLR,,0.00,WeatherDisplay:10.37,2013-07-24 05:57:00,
2013-07-24 02:02:00,73.4,69.6,29.54,SSW,202,1.1,2.3,88,0.00,CLR,,0.00,WeatherDisplay:10.37,2013-07-24 06:02:00,
2013-07-24 02:07:00,73.2,69.5,29.54,SW,225,0.9,1.1,88,0.00,CLR,,0.00,WeatherDisplay:10.37,2013-07-24 06:07:00,
2013-07-24 02:12:00,73.0,69.3,29.54,SW,225,0.0,0.0,88,0.00,CLR,,0.00,WeatherDisplay:10.37,2013-07-24 06:12:00,
2013-07-24 02:17:00,73.0,68.9,29.53,SW,225,0.0,1.1,87,0.00,CLR,,0.00,WeatherDisplay:10.37,2013-07-24 06:17:00,
2013-07-24 02:22:00,72.9,68.8,29.53,West,270,0.0,0.0,87,0.00,CLR,,0.00,WeatherDisplay:10.37,2013-07-24 06:22:00,
2013-07-24 02:27:00,72.7,68.6,29.53,South,180,0.7,0.7,87,0.00,CLR,,0.00,WeatherDisplay:10.37,2013-07-24 06:27:00,
2013-07-24 02:32:00,72.5,68.7,29.53,South,180,0.0,0.0,88,0.00,CLR,,0.00,WeatherDisplay:10.37,2013-07-24 06:32:00,
2013-07-24 02:37:00,72.5,68.7,29.54,South,180,0.0,0.0,88,0.00,CLR,,0.00,WeatherDisplay:10.37,2013-07-24 06:37:00,
2013-07-24 02:42:00,72.3,68.6,29.54,WSW,248,0.0,0.0,88,0.00,CLR,,0.00,WeatherDisplay:10.37,2013-07-24 06:42:00,
2013-07-24 02:47:00,72.3,68.6,29.53,WSW,248,0.0,0.0,88,0.00,CLR,,0.00,WeatherDisplay:10.37,2013-07-24 06:47:00,
2013-07-24 02:52:00,72.3,68.6,29.54,WSW,248,0.0,0.0,88,0.00,CLR,,0.00,WeatherDisplay:10.37,2013-07-24 06:52:00,
2013-07-24 02:57:00,72.3,68.6,29.54,WSW,248,0.0,0.0,88,0.00,CLR,,0.00,WeatherDisplay:10.37,2013-07-24 06:57:00,
2013-07-24 03:02:00,72.3,68.6,29.54,WSW,248,0.0,0.0,88,0.00,CLR,,0.00,WeatherDisplay:10.37,2013-07-24 07:02:00,
2013-07-24 03:07:00,72.3,68.6,29.54,WSW,248,0.7,0.7,88,0.00,CLR,,0.00,WeatherDisplay:10.37,2013-07-24 07:07:00,
2013-07-24 03:12:00,72.3,68.6,29.54,WSW,248,0.0,0.0,88,0.00,CLR,,0.00,WeatherDisplay:10.37,2013-07-24 07:12:00,
2013-07-24 03:17:00,72.3,68.6,29.54,WSW,248,0.0,0.0,88,0.00,CLR,,0.00,WeatherDisplay:10.37,2013-07-24 07:17:00,
2013-07-24 03:22:00,72.3,68.6,29.54,SW,225,0.2,1.1,88,0.00,CLR,,0.00,WeatherDisplay:10.37,2013-07-24 07:22:00,
2013-07-24 03:27:00,72.3,68.6,29.54,SSW,202,0.0,0.0,88,0.00,CLR,,0.00,WeatherDisplay:10.37,2013-07-24 07:27:00,
2013-07-24 03:32:00,72.3,68.6,29.54,SSW,202,0.7,2.3,88,0.00,CLR,,0.00,WeatherDisplay:10.37,2013-07-24 07:32:00,
2013-07-24 03:37:00,72.3,68.6,29.53,WSW,248,0.0,1.1,88,0.00,CLR,,0.00,WeatherDisplay:10.37,2013-07-24 07:37:00,
2013-07-24 03:42:00,72.3,68.6,29.54,West,270,0.0,0.0,88,0.00,CLR,,0.00,WeatherDisplay:10.37,2013-07-24 07:42:00,
2013-07-24 03:47:00,72.3,68.6,29.53,West,270,0.0,0.0,88,0.00,CLR,,0.00,WeatherDisplay:10.37,2013-07-24 07:47:00,
2013-07-24 03:52:00,72.3,68.6,29.53,West,270,0.0,0.0,88,0.00,CLR,,0.00,WeatherDisplay:10.37,2013-07-24 07:52:00,
2013-07-24 03:57:00,72.3,68.6,29.53,West,270,0.0,0.0,88,0.00,CLR,,0.00,WeatherDisplay:10.37,2013-07-24 07:57:00,
2013-07-24 04:02:00,72.3,68.6,29.53,West,270,0.0,0.0,88,0.00,CLR,,0.00,WeatherDisplay:10.37,2013-07-24 08:02:00,
2013-07-24 04:07:00,72.1,68.4,29.53,West,270,0.0,0.0,88,0.00,CLR,,0.00,WeatherDisplay:10.37,2013-07-24 08:07:00,
2013-07-24 04:12:00,72.0,68.5,29.53,West,270,0.0,0.0,89,0.00,CLR,,0.00,WeatherDisplay:10.37,2013-07-24 08:12:00,
2013-07-24 04:17:00,71.8,68.4,29.53,West,270,0.0,0.0,89,0.00,CLR,,0.00,WeatherDisplay:10.37,2013-07-24 08:17:00,
2013-07-24 04:22:00,71.8,68.4,29.53,West,270,0.0,0.0,89,0.00,CLR,,0.00,WeatherDisplay:10.37,2013-07-24 08:22:00,
2013-07-24 04:27:00,71.6,68.2,29.53,West,270,0.0,0.0,89,0.00,CLR,,0.00,WeatherDisplay:10.37,2013-07-24 08:27:00,
2013-07-24 04:32:00,71.4,68.0,29.54,West,270,0.0,0.0,89,0.00,CLR,,0.00,WeatherDisplay:10.37,2013-07-24 08:32:00,
2013-07-24 04:37:00,71.2,67.8,29.53,WSW,248,0.0,0.0,89,0.00,CLR,,0.00,WeatherDisplay:10.37,2013-07-24 08:37:00,
2013-07-24 04:42:00,71.1,67.7,29.53,WSW,248,0.0,0.0,89,0.00,CLR,,0.00,WeatherDisplay:10.37,2013-07-24 08:42:00,
2013-07-24 04:47:00,70.9,67.5,29.53,WSW,248,0.0,0.0,89,0.00,CLR,,0.00,WeatherDisplay:10.37,2013-07-24 08:47:00,
2013-07-24 04:52:00,70.9,67.5,29.53,WSW,248,0.0,0.0,89,0.00,CLR,,0.00,WeatherDisplay:10.37,2013-07-24 08:52:00,
2013-07-24 04:57:00,70.7,67.3,29.53,WSW,248,0.0,0.0,89,0.00,CLR,,0.00,WeatherDisplay:10.37,2013-07-24 08:57:00,
2013-07-24 05:02:00,70.5,67.1,29.54,WSW,248,0.0,0.0,89,0.00,CLR,,0.00,WeatherDisplay:10.37,2013-07-24 09:02:00,
2013-07-24 05:07:00,70.5,67.1,29.53,WSW,248,0.0,0.0,89,0.00,CLR,,0.00,WeatherDisplay:10.37,2013-07-24 09:07:00,
2013-07-24 05:12:00,70.5,67.1,29.54,West,270,0.0,0.0,89,0.00,CLR,,0.00,WeatherDisplay:10.37,2013-07-24 09:12:00,
2013-07-24 05:17:00,70.5,67.4,29.54,West,270,0.0,0.0,90,0.00,CLR,,0.00,WeatherDisplay:10.37,2013-07-24 09:17:00,
2013-07-24 05:22:00,70.5,67.4,29.54,West,270,0.0,0.0,90,0.00,CLR,,0.00,WeatherDisplay:10.37,2013-07-24 09:22:00,
2013-07-24 05:27:00,70.3,67.3,29.54,SSW,202,0.0,0.0,90,0.00,CLR,,0.00,WeatherDisplay:10.37,2013-07-24 09:27:00,
2013-07-24 05:32:00,70.3,67.3,29.54,SSW,202,0.0,1.1,90,0.00,CLR,,0.00,WeatherDisplay:10.37,2013-07-24 09:32:00,
2013-07-24 05:37:00,70.3,67.3,29.54,SSW,202,0.0,0.0,90,0.00,CLR,,0.00,WeatherDisplay:10.37,2013-07-24 09:37:00,
2013-07-24 05:42:00,70.3,67.3,29.54,SW,225,0.0,0.0,90,0.00,CLR,,0.00,WeatherDisplay:10.37,2013-07-24 09:42:00,
2013-07-24 05:47:00,70.2,67.1,29.54,SW,225,0.0,0.0,90,0.00,CLR,,0.00,WeatherDisplay:10.37,2013-07-24 09:47:00,
2013-07-24 05:52:00,70.3,67.3,29.54,SW,225,0.0,0.0,90,0.00,CLR,,0.00,WeatherDisplay:10.37,2013-07-24 09:52:00,
2013-07-24 05:57:00,70.2,67.1,29.54,SW,225,0.0,0.0,90,0.00,CLR,,0.00,WeatherDisplay:10.37,2013-07-24 09:57:00,
2013-07-24 06:02:00,70.3,67.3,29.55,SW,225,0.0,0.0,90,0.00,CLR,,0.00,WeatherDisplay:10.37,2013-07-24 10:02:00,
2013-07-24 06:07:00,70.5,67.4,29.55,SW,225,0.0,0.0,90,0.00,CLR,,0.00,WeatherDisplay:10.37,2013-07-24 10:07:00,
2013-07-24 06:12:00,70.7,67.6,29.55,SW,225,0.0,0.0,90,0.00,CLR,,0.00,WeatherDisplay:10.37,2013-07-24 10:12:00,
2013-07-24 06:17:00,70.9,67.8,29.56,SW,225,0.0,0.0,90,0.00,CLR,,0.00,WeatherDisplay:10.37,2013-07-24 10:17:00,
2013-07-24 06:22:00,71.1,68.0,29.56,SW,225,0.0,0.0,90,0.00,CLR,,0.00,WeatherDisplay:10.37,2013-07-24 10:22:00,
2013-07-24 06:27:00,71.1,68.0,29.56,SW,225,0.0,0.0,90,0.00,CLR,,0.00,WeatherDisplay:10.37,2013-07-24 10:27:00,
2013-07-24 06:32:00,71.2,68.5,29.56,SW,225,0.0,0.0,91,0.00,CLR,,0.00,WeatherDisplay:10.37,2013-07-24 10:32:00,
2013-07-24 06:37:00,71.2,68.2,29.56,SW,225,0.0,0.0,90,0.00,CLR,,0.00,WeatherDisplay:10.37,2013-07-24 10:37:00,
2013-07-24 06:42:00,71.4,68.3,29.56,SW,225,0.0,0.0,90,0.00,CLR,,0.00,WeatherDisplay:10.37,2013-07-24 10:42:00,
2013-07-24 06:47:00,71.6,68.5,29.56,SW,225,0.0,0.0,90,0.00,CLR,,0.00,WeatherDisplay:10.37,2013-07-24 10:47:00,
2013-07-24 06:52:00,71.8,69.0,29.56,SW,225,0.0,0.0,91,0.00,CLR,,0.00,WeatherDisplay:10.37,2013-07-24 10:52:00,
2013-07-24 06:57:00,72.0,68.9,29.56,SW,225,0.0,0.0,90,0.00,CLR,,0.00,WeatherDisplay:10.37,2013-07-24 10:57:00,
2013-07-24 07:02:00,72.3,69.2,29.56,WSW,248,0.0,0.0,90,0.00,CLR,,0.00,WeatherDisplay:10.37,2013-07-24 11:02:00,
2013-07-24 07:07:00,72.9,69.8,29.56,WSW,248,0.0,0.0,90,0.00,CLR,,0.00,WeatherDisplay:10.37,2013-07-24 11:07:00,
2013-07-24 07:12:00,73.4,70.6,29.56,WSW,248,0.0,0.0,91,0.00,CLR,,0.00,WeatherDisplay:10.37,2013-07-24 11:12:00,
2013-07-24 07:17:00,73.8,71.0,29.56,West,270,0.7,0.7,91,0.00,CLR,,0.00,WeatherDisplay:10.37,2013-07-24 11:17:00,
2013-07-24 07:22:00,74.5,71.7,29.56,SSW,202,0.9,0.9,91,0.00,CLR,,0.00,WeatherDisplay:10.37,2013-07-24 11:22:00,
2013-07-24 07:27:00,74.8,71.7,29.56,SW,225,0.7,0.7,90,0.00,CLR,,0.00,WeatherDisplay:10.37,2013-07-24 11:27:00,
2013-07-24 07:32:00,75.2,72.1,29.56,WSW,248,0.2,0.0,90,0.00,CLR,,0.00,WeatherDisplay:10.37,2013-07-24 11:32:00,
2013-07-24 07:37:00,75.6,72.1,29.56,SSW,202,1.1,1.1,89,0.00,CLR,,0.00,WeatherDisplay:10.37,2013-07-24 11:37:00,
2013-07-24 07:42:00,76.1,72.6,29.56,SW,225,0.2,1.1,89,0.00,CLR,,0.00,WeatherDisplay:10.37,2013-07-24 11:42:00,
2013-07-24 07:47:00,76.6,72.8,29.56,SSE,158,0.2,2.3,88,0.00,CLR,,0.00,WeatherDisplay:10.37,2013-07-24 11:47:00,
2013-07-24 07:52:00,77.0,73.2,29.57,SSW,202,0.5,0.5,88,0.00,CLR,,0.00,WeatherDisplay:10.37,2013-07-24 11:52:00,
2013-07-24 07:57:00,77.4,73.2,29.57,South,180,0.5,2.3,87,0.00,CLR,,0.00,WeatherDisplay:10.37,2013-07-24 11:57:00,
2013-07-24 08:02:00,77.9,73.4,29.57,SSE,158,0.2,2.3,86,0.00,CLR,,0.00,WeatherDisplay:10.37,2013-07-24 12:02:00,
2013-07-24 08:07:00,78.3,73.4,29.57,SW,225,0.5,2.3,85,0.00,CLR,,0.00,WeatherDisplay:10.37,2013-07-24 12:07:00,
2013-07-24 08:12:00,78.6,73.4,29.58,SSE,158,2.4,2.4,84,0.00,CLR,,0.00,WeatherDisplay:10.37,2013-07-24 12:12:00,
2013-07-24 08:17:00,78.8,73.6,29.58,SW,225,0.5,1.1,84,0.00,CLR,,0.00,WeatherDisplay:10.37,2013-07-24 12:17:00,
2013-07-24 08:22:00,79.2,73.5,29.58,SW,225,0.9,4.6,83,0.00,CLR,,0.00,WeatherDisplay:10.37,2013-07-24 12:22:00,
2013-07-24 08:27:00,79.5,73.9,29.58,North,0,0.2,0.7,83,0.00,CLR,,0.00,WeatherDisplay:10.37,2013-07-24 12:27:00,
2013-07-24 08:32:00,79.9,74.3,29.58,SW,225,0.5,2.3,83,0.00,CLR,,0.00,WeatherDisplay:10.37,2013-07-24 12:32:00,
2013-07-24 08:37:00,80.2,74.2,29.58,SSW,202,0.2,1.1,82,0.00,CLR,,0.00,WeatherDisplay:10.37,2013-07-24 12:37:00,
2013-07-24 08:42:00,80.2,74.2,29.58,SW,225,0.0,0.0,82,0.00,CLR,,0.00,WeatherDisplay:10.37,2013-07-24 12:42:00,
2013-07-24 08:47:00,80.4,74.4,29.58,WSW,248,0.7,2.3,82,0.00,CLR,,0.00,WeatherDisplay:10.37,2013-07-24 12:47:00,
2013-07-24 08:52:00,80.2,73.9,29.59,SSW,202,2.0,2.0,81,0.00,CLR,,0.00,WeatherDisplay:10.37,2013-07-24 12:52:00,
2013-07-24 08:57:00,80.2,73.9,29.59,WSW,248,1.1,1.1,81,0.00,CLR,,0.00,WeatherDisplay:10.37,2013-07-24 12:57:00,
2013-07-24 09:02:00,81.0,74.6,29.59,SSE,158,0.7,1.1,81,0.00,CLR,,0.00,WeatherDisplay:10.37,2013-07-24 13:02:00,
2013-07-24 09:07:00,81.3,74.6,29.59,West,270,0.0,1.1,80,0.00,CLR,,0.00,WeatherDisplay:10.37,2013-07-24 13:07:00,
2013-07-24 09:12:00,81.1,74.4,29.59,SW,225,0.2,2.3,80,0.00,CLR,,0.00,WeatherDisplay:10.37,2013-07-24 13:12:00,
2013-07-24 09:17:00,80.6,73.9,29.59,SW,225,0.2,0.2,80,0.00,CLR,,0.00,WeatherDisplay:10.37,2013-07-24 13:17:00,
2013-07-24 09:22:00,81.0,73.8,29.59,WSW,248,0.2,1.1,79,0.00,CLR,,0.00,WeatherDisplay:10.37,2013-07-24 13:22:00,
2013-07-24 09:27:00,81.7,75.3,29.59,SW,225,4.0,4.0,81,0.00,CLR,,0.00,WeatherDisplay:10.37,2013-07-24 13:27:00,
2013-07-24 09:32:00,82.4,75.6,29.59,SE,135,2.2,2.3,80,0.00,CLR,,0.00,WeatherDisplay:10.37,2013-07-24 13:32:00,
2013-07-24 09:38:00,82.9,75.8,29.59,South,180,4.3,4.6,79,0.00,CLR,,0.00,WeatherDisplay:10.37,2013-07-24 13:38:00,
2013-07-24 09:43:00,83.5,75.5,29.59,SSW,202,0.9,2.3,77,0.00,CLR,,0.00,WeatherDisplay:10.37,2013-07-24 13:43:00,
2013-07-24 09:48:00,84.2,76.6,29.59,SSW,202,2.0,2.3,78,0.00,CLR,,0.00,WeatherDisplay:10.37,2013-07-24 13:48:00,
2013-07-24 09:53:00,84.4,76.4,29.59,South,180,1.4,2.3,77,0.00,CLR,,0.00,WeatherDisplay:10.37,2013-07-24 13:53:00,
2013-07-24 09:58:00,84.9,76.5,29.59,SSW,202,2.0,3.5,76,0.00,CLR,,0.00,WeatherDisplay:10.37,2013-07-24 13:58:00,
2013-07-24 10:03:00,85.3,76.0,29.60,SW,225,0.5,0.0,74,0.00,CLR,,0.00,WeatherDisplay:10.37,2013-07-24 14:03:00,
2013-07-24 10:08:00,85.5,75.8,29.60,SSW,202,6.2,6.2,73,0.00,CLR,,0.00,WeatherDisplay:10.37,2013-07-24 14:08:00,
2013-07-24 10:13:00,86.0,76.7,29.60,NNW,338,0.7,2.3,74,0.00,CLR,,0.00,WeatherDisplay:10.37,2013-07-24 14:13:00,
2013-07-24 10:18:00,86.5,77.3,29.60,SW,225,3.1,3.5,74,0.00,CLR,,0.00,WeatherDisplay:10.37,2013-07-24 14:18:00,
2013-07-24 10:23:00,86.5,76.4,29.60,SSW,202,4.5,5.8,72,0.00,CLR,,0.00,WeatherDisplay:10.37,2013-07-24 14:23:00,
2013-07-24 10:28:00,86.0,76.3,29.60,WSW,248,1.4,1.4,73,0.00,CLR,,0.00,WeatherDisplay:10.37,2013-07-24 14:28:00,
2013-07-24 10:33:00,84.9,74.9,29.61,SW,225,3.6,5.8,72,0.00,CLR,,0.00,WeatherDisplay:10.37,2013-07-24 14:33:00,
2013-07-24 10:38:00,84.9,75.7,29.61,South,180,2.2,2.3,74,0.00,CLR,,0.00,WeatherDisplay:10.37,2013-07-24 14:38:00,
2013-07-24 10:43:00,85.5,75.8,29.61,South,180,2.4,5.8,73,0.00,CLR,,0.00,WeatherDisplay:10.37,2013-07-24 14:43:00,
2013-07-24 10:48:00,86.0,75.9,29.61,SSW,202,4.7,4.7,72,0.00,CLR,,0.00,WeatherDisplay:10.37,2013-07-24 14:48:00,
2013-07-24 10:53:00,86.2,76.1,29.61,SSW,202,3.1,3.5,72,0.00,CLR,,0.00,WeatherDisplay:10.37,2013-07-24 14:53:00,
2013-07-24 10:58:00,85.8,75.3,29.61,SW,225,6.0,6.0,71,0.00,CLR,,0.00,WeatherDisplay:10.37,2013-07-24 14:58:00,
2013-07-24 11:03:00,85.6,76.0,29.61,SSE,158,4.0,4.6,73,0.00,CLR,,0.00,WeatherDisplay:10.37,2013-07-24 15:03:00,
2013-07-24 11:08:00,86.0,76.3,29.61,SW,225,0.5,2.3,73,0.00,CLR,,0.00,WeatherDisplay:10.37,2013-07-24 15:08:00,
2013-07-24 11:13:00,85.3,75.6,29.61,South,180,2.6,2.6,73,0.00,CLR,,0.00,WeatherDisplay:10.37,2013-07-24 15:13:00,
2013-07-24 11:18:00,84.6,74.9,29.61,SSW,202,4.7,4.7,73,0.00,CLR,,0.00,WeatherDisplay:10.37,2013-07-24 15:18:00,
2013-07-24 11:23:00,84.9,75.7,29.61,SSW,202,3.6,4.6,74,0.00,CLR,,0.00,WeatherDisplay:10.37,2013-07-24 15:23:00,
2013-07-24 11:28:00,85.3,75.2,29.61,SW,225,0.7,1.1,72,0.00,CLR,,0.00,WeatherDisplay:10.37,2013-07-24 15:28:00,
2013-07-24 11:33:00,85.8,75.7,29.62,SSE,158,1.1,1.1,72,0.00,CLR,,0.00,WeatherDisplay:10.37,2013-07-24 15:33:00,
2013-07-24 11:38:00,86.4,75.4,29.62,SW,225,0.5,2.3,70,0.00,CLR,,0.00,WeatherDisplay:10.37,2013-07-24 15:38:00,
2013-07-24 11:43:00,87.1,75.2,29.62,SW,225,3.3,4.6,68,0.00,CLR,,0.00,WeatherDisplay:10.37,2013-07-24 15:43:00,
2013-07-24 11:48:00,87.3,75.0,29.63,SSW,202,3.1,5.8,67,0.00,CLR,,0.00,WeatherDisplay:10.37,2013-07-24 15:48:00,
2013-07-24 11:53:00,86.7,74.9,29.63,SW,225,5.4,5.4,68,0.00,CLR,,0.00,WeatherDisplay:10.37,2013-07-24 15:53:00,
2013-07-24 11:58:00,87.3,75.8,29.63,SW,225,4.7,6.9,69,0.00,CLR,,0.00,WeatherDisplay:10.37,2013-07-24 15:58:00,
2013-07-24 12:03:00,87.4,75.6,29.63,SW,225,2.0,4.6,68,0.00,CLR,,0.00,WeatherDisplay:10.37,2013-07-24 16:03:00,
2013-07-24 12:08:00,87.6,75.3,29.63,SW,225,7.8,8.1,67,0.00,CLR,,0.00,WeatherDisplay:10.37,2013-07-24 16:08:00,
2013-07-24 12:13:00,88.0,75.6,29.63,SW,225,2.4,4.6,67,0.00,CLR,,0.00,WeatherDisplay:10.37,2013-07-24 16:13:00,
2013-07-24 12:18:00,88.3,76.0,29.63,SW,225,0.7,3.5,67,0.00,CLR,,0.00,WeatherDisplay:10.37,2013-07-24 16:18:00,
2013-07-24 12:23:00,88.7,75.0,29.63,SSW,202,4.5,4.6,64,0.00,CLR,,0.00,WeatherDisplay:10.37,2013-07-24 16:23:00,
2013-07-24 12:28:00,88.9,75.1,29.63,SSW,202,2.2,2.3,64,0.00,CLR,,0.00,WeatherDisplay:10.37,2013-07-24 16:28:00,
2013-07-24 12:33:00,89.1,76.2,29.62,South,180,6.0,6.0,66,0.00,CLR,,0.00,WeatherDisplay:10.37,2013-07-24 16:33:00,
2013-07-24 12:38:00,89.4,75.2,29.63,WNW,292,2.6,4.6,63,0.00,CLR,,0.00,WeatherDisplay:10.37,2013-07-24 16:38:00,
2013-07-24 12:43:00,89.4,75.6,29.63,WSW,248,2.4,2.4,64,0.00,CLR,,0.00,WeatherDisplay:10.37,2013-07-24 16:43:00,
2013-07-24 12:48:00,89.1,75.3,29.63,SW,225,4.7,4.7,64,0.00,CLR,,0.00,WeatherDisplay:10.37,2013-07-24 16:48:00,
2013-07-24 12:53:00,88.5,75.2,29.63,WSW,248,0.5,0.5,65,0.00,CLR,,0.00,WeatherDisplay:10.37,2013-07-24 16:53:00,
2013-07-24 12:58:00,88.0,75.2,29.62,WNW,292,0.2,2.3,66,0.00,CLR,,0.00,WeatherDisplay:10.37,2013-07-24 16:58:00,
2013-07-24 13:03:00,87.6,74.4,29.63,SSW,202,1.6,4.6,65,0.00,CLR,,0.00,WeatherDisplay:10.37,2013-07-24 17:03:00,
2013-07-24 13:08:00,87.1,74.3,29.62,SW,225,4.7,4.7,66,0.00,CLR,,0.00,WeatherDisplay:10.37,2013-07-24 17:08:00,
2013-07-24 13:13:00,86.7,74.4,29.62,SSW,202,0.7,3.5,67,0.00,CLR,,0.00,WeatherDisplay:10.37,2013-07-24 17:13:00,
2013-07-24 13:18:00,86.7,74.4,29.63,SSW,202,0.7,4.6,67,0.00,CLR,,0.00,WeatherDisplay:10.37,2013-07-24 17:18:00,
2013-07-24 13:23:00,87.1,75.7,29.63,SW,225,1.8,2.3,69,0.00,CLR,,0.00,WeatherDisplay:10.37,2013-07-24 17:23:00,
2013-07-24 13:28:00,88.0,76.1,29.63,WNW,292,3.3,4.6,68,0.00,CLR,,0.00,WeatherDisplay:10.37,2013-07-24 17:28:00,
2013-07-24 13:33:00,88.5,75.7,29.63,SW,225,7.1,7.1,66,0.00,CLR,,0.00,WeatherDisplay:10.37,2013-07-24 17:33:00,
2013-07-24 13:38:00,88.9,75.1,29.63,SW,225,4.9,5.8,64,0.00,CLR,,0.00,WeatherDisplay:10.37,2013-07-24 17:38:00,
2013-07-24 13:43:00,89.2,75.9,29.63,West,270,3.8,5.8,65,0.00,CLR,,0.00,WeatherDisplay:10.37,2013-07-24 17:43:00,
2013-07-24 13:48:00,89.4,75.6,29.63,SSW,202,3.6,6.9,64,0.00,CLR,,0.00,WeatherDisplay:10.37,2013-07-24 17:48:00,
2013-07-24 13:53:00,89.8,76.0,29.63,West,270,2.9,2.9,64,0.00,CLR,,0.00,WeatherDisplay:10.37,2013-07-24 17:53:00,
2013-07-24 13:58:00,90.0,75.7,29.63,WSW,248,4.5,4.5,63,0.00,CLR,,0.00,WeatherDisplay:10.37,2013-07-24 17:58:00,
2013-07-24 14:03:00,89.6,74.4,29.63,South,180,2.6,2.6,61,0.00,CLR,,0.00,WeatherDisplay:10.37,2013-07-24 18:03:00,
2013-07-24 14:08:00,89.4,75.6,29.63,SSW,202,4.3,4.3,64,0.00,CLR,,0.00,WeatherDisplay:10.37,2013-07-24 18:08:00,
2013-07-24 14:13:00,90.0,75.7,29.63,SSE,158,9.0,9.0,63,0.00,CLR,,0.00,WeatherDisplay:10.37,2013-07-24 18:13:00,
2013-07-24 14:18:00,90.0,74.2,29.63,SSW,202,5.9,5.9,60,0.00,CLR,,0.00,WeatherDisplay:10.37,2013-07-24 18:18:00,
2013-07-24 14:23:00,90.1,73.9,29.64,SSW,202,4.0,4.6,59,0.00,CLR,,0.00,WeatherDisplay:10.37,2013-07-24 18:23:00,
2013-07-24 14:28:00,89.2,73.5,29.64,WSW,248,1.4,5.8,60,0.00,CLR,,0.00,WeatherDisplay:10.37,2013-07-24 18:28:00,
2013-07-24 14:33:00,88.9,74.2,29.64,SW,225,6.9,6.9,62,0.00,CLR,,0.00,WeatherDisplay:10.37,2013-07-24 18:33:00,
2013-07-24 14:38:00,89.2,73.5,29.64,SW,225,4.5,8.1,60,0.00,CLR,,0.00,WeatherDisplay:10.37,2013-07-24 18:38:00,
2013-07-24 14:43:00,88.9,72.7,29.64,SSE,158,3.6,3.6,59,0.00,CLR,,0.00,WeatherDisplay:10.37,2013-07-24 18:43:00,
2013-07-24 14:48:00,89.2,74.0,29.64,SSW,202,2.4,5.8,61,0.00,CLR,,0.00,WeatherDisplay:10.37,2013-07-24 18:48:00,
2013-07-24 14:53:00,89.2,73.5,29.64,SE,135,4.5,5.8,60,0.00,CLR,,0.00,WeatherDisplay:10.37,2013-07-24 18:53:00,
2013-07-24 14:58:00,89.2,74.0,29.64,SSW,202,3.3,8.1,61,0.00,CLR,,0.00,WeatherDisplay:10.37,2013-07-24 18:58:00,
2013-07-24 15:03:00,89.2,74.5,29.65,SW,225,2.4,4.6,62,0.00,CLR,,0.00,WeatherDisplay:10.37,2013-07-24 19:03:00,
2013-07-24 15:08:00,89.6,73.4,29.64,SSW,202,3.1,10.4,59,0.00,CLR,,0.00,WeatherDisplay:10.37,2013-07-24 19:08:00,
2013-07-24 15:13:00,89.6,72.9,29.64,SE,135,1.8,5.8,58,0.00,CLR,,0.00,WeatherDisplay:10.37,2013-07-24 19:13:00,
2013-07-24 15:18:00,89.4,72.7,29.65,South,180,4.5,9.2,58,0.00,CLR,,0.00,WeatherDisplay:10.37,2013-07-24 19:18:00,
2013-07-24 15:23:00,89.6,73.4,29.65,WSW,248,2.2,3.5,59,0.00,CLR,,0.00,WeatherDisplay:10.37,2013-07-24 19:23:00,
2013-07-24 15:28:00,90.0,73.7,29.65,WSW,248,3.1,6.9,59,0.00,CLR,,0.00,WeatherDisplay:10.37,2013-07-24 19:28:00,
2013-07-24 15:33:00,90.1,72.8,29.65,South,180,2.4,4.6,57,0.00,CLR,,0.00,WeatherDisplay:10.37,2013-07-24 19:33:00,
2013-07-24 15:38:00,90.0,73.2,29.65,SSW,202,2.6,5.8,58,0.00,CLR,,0.00,WeatherDisplay:10.37,2013-07-24 19:38:00,
2013-07-24 15:43:00,90.0,73.2,29.65,SW,225,2.2,6.9,58,0.00,CLR,,0.00,WeatherDisplay:10.37,2013-07-24 19:43:00,
2013-07-24 15:48:00,90.0,73.7,29.65,SW,225,2.6,2.6,59,0.00,CLR,,0.00,WeatherDisplay:10.37,2013-07-24 19:48:00,
2013-07-24 15:53:00,90.0,73.2,29.65,SW,225,2.4,8.1,58,0.00,CLR,,0.00,WeatherDisplay:10.37,2013-07-24 19:53:00,
2013-07-24 15:58:00,90.1,73.4,29.65,South,180,0.7,4.6,58,0.00,CLR,,0.00,WeatherDisplay:10.37,2013-07-24 19:58:00,
2013-07-24 16:03:00,90.0,74.2,29.65,SSW,202,1.1,4.6,60,0.00,CLR,,0.00,WeatherDisplay:10.37,2013-07-24 20:03:00,
2013-07-24 16:08:00,90.0,74.2,29.65,South,180,6.0,6.0,60,0.00,CLR,,0.00,WeatherDisplay:10.37,2013-07-24 20:08:00,
2013-07-24 16:13:00,90.0,73.7,29.66,WSW,248,1.6,4.6,59,0.00,CLR,,0.00,WeatherDisplay:10.37,2013-07-24 20:13:00,
2013-07-24 16:18:00,90.1,73.9,29.66,West,270,3.3,4.6,59,0.00,CLR,,0.00,WeatherDisplay:10.37,2013-07-24 20:18:00,
2013-07-24 16:23:00,90.3,72.5,29.66,SW,225,9.0,10.4,56,0.00,CLR,,0.00,WeatherDisplay:10.37,2013-07-24 20:23:00,
2013-07-24 16:28:00,90.5,73.2,29.66,SW,225,0.7,4.6,57,0.00,CLR,,0.00,WeatherDisplay:10.37,2013-07-24 20:28:00,
2013-07-24 16:33:00,91.0,74.2,29.66,SW,225,1.4,3.5,58,0.00,CLR,,0.00,WeatherDisplay:10.37,2013-07-24 20:33:00,
2013-07-24 16:38:00,91.6,73.1,29.66,West,270,2.6,2.6,55,0.00,CLR,,0.00,WeatherDisplay:10.37,2013-07-24 20:38:00,
2013-07-24 16:43:00,92.1,74.2,29.66,SSW,202,5.4,5.4,56,0.00,CLR,,0.00,WeatherDisplay:10.37,2013-07-24 20:43:00,
2013-07-24 16:48:00,93.4,73.7,29.66,SW,225,3.6,4.6,53,0.00,CLR,,0.00,WeatherDisplay:10.37,2013-07-24 20:48:00,
2013-07-24 16:53:00,94.3,72.2,29.67,WSW,248,3.3,4.6,49,0.00,CLR,,0.00,WeatherDisplay:10.37,2013-07-24 20:53:00,
2013-07-24 16:58:00,94.6,73.7,29.67,SSE,158,2.9,2.9,51,0.00,CLR,,0.00,WeatherDisplay:10.37,2013-07-24 20:58:00,
2013-07-24 17:03:00,94.3,72.8,29.67,SW,225,5.4,5.4,50,0.00,CLR,,0.00,WeatherDisplay:10.37,2013-07-24 21:03:00,
2013-07-24 17:08:00,93.4,72.5,29.67,SW,225,2.6,6.9,51,0.00,CLR,,0.00,WeatherDisplay:10.37,2013-07-24 21:08:00,
2013-07-24 17:13:00,92.8,71.5,29.67,SSW,202,6.9,6.9,50,0.00,CLR,,0.00,WeatherDisplay:10.37,2013-07-24 21:13:00,
2013-07-24 17:18:00,90.9,71.4,29.68,WSW,248,2.2,3.5,53,0.00,CLR,,0.00,WeatherDisplay:10.37,2013-07-24 21:18:00,
2013-07-24 17:23:00,89.1,70.8,29.68,NW,315,0.9,2.3,55,0.00,CLR,,0.00,WeatherDisplay:10.37,2013-07-24 21:23:00,
2013-07-24 17:28:00,87.6,70.5,29.68,SW,225,2.4,5.8,57,0.00,CLR,,0.00,WeatherDisplay:10.37,2013-07-24 21:28:00,
2013-07-24 17:33:00,86.5,70.0,29.68,SSW,202,1.1,2.3,58,0.00,CLR,,0.00,WeatherDisplay:10.37,2013-07-24 21:33:00,
2013-07-24 17:38:00,85.6,70.2,29.68,SW,225,3.8,3.8,60,0.00,CLR,,0.00,WeatherDisplay:10.37,2013-07-24 21:38:00,
2013-07-24 17:43:00,84.9,70.0,29.68,WSW,248,4.0,4.0,61,0.00,CLR,,0.00,WeatherDisplay:10.37,2013-07-24 21:43:00,
2013-07-24 17:48:00,84.6,70.1,29.68,WNW,292,0.2,2.3,62,0.00,CLR,,0.00,WeatherDisplay:10.37,2013-07-24 21:48:00,
2013-07-24 17:53:00,84.4,70.9,29.68,NW,315,0.5,1.1,64,0.00,CLR,,0.00,WeatherDisplay:10.37,2013-07-24 21:53:00,
2013-07-24 17:58:00,84.4,70.9,29.68,SSW,202,2.2,2.3,64,0.00,CLR,,0.00,WeatherDisplay:10.37,2013-07-24 21:58:00,
2013-07-24 18:03:00,84.6,71.0,29.68,WSW,248,2.4,2.4,64,0.00,CLR,,0.00,WeatherDisplay:10.37,2013-07-24 22:03:00,
2013-07-24 18:08:00,84.6,71.0,29.68,West,270,0.5,2.3,64,0.00,CLR,,0.00,WeatherDisplay:10.37,2013-07-24 22:08:00,
2013-07-24 18:13:00,84.4,70.9,29.68,NW,315,0.7,3.5,64,0.00,CLR,,0.00,WeatherDisplay:10.37,2013-07-24 22:13:00,
2013-07-24 18:18:00,84.2,70.7,29.69,West,270,1.4,1.4,64,0.00,CLR,,0.00,WeatherDisplay:10.37,2013-07-24 22:18:00,
2013-07-24 18:23:00,84.0,71.0,29.69,SW,225,0.2,2.3,65,0.00,CLR,,0.00,WeatherDisplay:10.37,2013-07-24 22:23:00,
2013-07-24 18:28:00,83.8,71.3,29.68,WSW,248,0.5,1.1,66,0.00,CLR,,0.00,WeatherDisplay:10.37,2013-07-24 22:28:00,
2013-07-24 18:33:00,83.5,70.9,29.69,NNE,22,0.9,2.3,66,0.00,CLR,,0.00,WeatherDisplay:10.37,2013-07-24 22:33:00,
2013-07-24 18:38:00,83.1,71.0,29.69,WSW,248,0.5,1.1,67,0.00,CLR,,0.00,WeatherDisplay:10.37,2013-07-24 22:38:00,
2013-07-24 18:43:00,82.9,70.9,29.70,WNW,292,0.9,2.3,67,0.00,CLR,,0.00,WeatherDisplay:10.37,2013-07-24 22:43:00,
2013-07-24 18:48:00,82.6,70.1,29.70,WSW,248,0.2,1.1,66,0.00,CLR,,0.00,WeatherDisplay:10.37,2013-07-24 22:48:00,
2013-07-24 18:53:00,82.0,70.0,29.71,SW,225,0.2,2.3,67,0.00,CLR,,0.00,WeatherDisplay:10.37,2013-07-24 22:53:00,
2013-07-24 18:58:00,81.7,70.1,29.71,SW,225,0.5,0.5,68,0.00,CLR,,0.00,WeatherDisplay:10.37,2013-07-24 22:58:00,
2013-07-24 19:03:00,81.5,69.9,29.71,SW,225,0.5,0.5,68,0.00,CLR,,0.00,WeatherDisplay:10.37,2013-07-24 23:03:00,
2013-07-24 19:08:00,81.3,69.7,29.72,WSW,248,0.0,2.3,68,0.00,CLR,,0.00,WeatherDisplay:10.37,2013-07-24 23:08:00,
2013-07-24 19:13:00,81.1,70.0,29.72,SW,225,0.2,0.2,69,0.00,CLR,,0.00,WeatherDisplay:10.37,2013-07-24 23:13:00,
2013-07-24 19:18:00,80.8,69.7,29.73,NNW,338,0.0,0.0,69,0.00,CLR,,0.00,WeatherDisplay:10.37,2013-07-24 23:18:00,
2013-07-24 19:23:00,80.6,70.3,29.73,North,0,4.3,4.3,71,0.00,CLR,,0.00,WeatherDisplay:10.37,2013-07-24 23:23:00,
2013-07-24 19:28:00,80.1,69.4,29.73,NW,315,0.5,4.6,70,0.00,CLR,,0.00,WeatherDisplay:10.37,2013-07-24 23:28:00,
2013-07-24 19:33:00,79.5,68.9,29.74,NW,315,0.5,1.1,70,0.00,CLR,,0.00,WeatherDisplay:10.37,2013-07-24 23:33:00,
2013-07-24 19:38:00,79.0,68.4,29.74,NW,315,4.0,4.0,70,0.00,CLR,,0.00,WeatherDisplay:10.37,2013-07-24 23:38:00,
2013-07-24 19:43:00,78.6,68.4,29.74,NW,315,2.4,2.4,71,0.00,CLR,,0.00,WeatherDisplay:10.37,2013-07-24 23:43:00,
2013-07-24 19:48:00,78.1,67.9,29.74,North,0,1.8,5.8,71,0.00,CLR,,0.00,WeatherDisplay:10.37,2013-07-24 23:48:00,
2013-07-24 19:53:00,77.7,68.4,29.75,North,0,1.6,4.6,73,0.00,CLR,,0.00,WeatherDisplay:10.37,2013-07-24 23:53:00,
2013-07-24 19:58:00,77.4,68.0,29.75,NNE,22,2.9,4.6,73,0.00,CLR,,0.00,WeatherDisplay:10.37,2013-07-24 23:58:00,
2013-07-24 20:03:00,77.0,68.1,29.75,NW,315,2.9,2.9,74,0.00,CLR,,0.00,WeatherDisplay:10.37,2013-07-25 00:03:00,
2013-07-24 20:08:00,76.6,68.1,29.76,NW,315,3.1,3.5,75,0.01,RA,,0.01,WeatherDisplay:10.37,2013-07-25 00:08:00,
2013-07-24 20:13:00,76.1,68.0,29.77,NE,45,0.5,2.3,76,0.03,RA,,0.03,WeatherDisplay:10.37,2013-07-25 00:13:00,
2013-07-24 20:18:00,75.6,67.8,29.77,NE,45,0.5,1.1,77,0.06,RA,,0.06,WeatherDisplay:10.37,2013-07-25 00:18:00,
2013-07-24 20:23:00,75.2,69.0,29.77,NNE,22,1.4,2.3,81,0.08,RA,,0.08,WeatherDisplay:10.37,2013-07-25 00:23:00,
2013-07-24 20:28:00,74.7,68.4,29.77,North,0,2.0,2.3,81,0.08,RA,,0.08,WeatherDisplay:10.37,2013-07-25 00:28:00,
2013-07-24 20:33:00,74.5,68.3,29.77,North,0,2.0,2.3,81,0.08,,,0.08,WeatherDisplay:10.37,2013-07-25 00:33:00,
2013-07-24 20:38:00,74.3,68.1,29.77,North,0,2.0,2.3,81,0.08,CLR,,0.08,WeatherDisplay:10.37,2013-07-25 00:38:00,
2013-07-24 20:43:00,74.1,67.9,29.78,North,0,2.0,2.3,81,0.08,CLR,,0.08,WeatherDisplay:10.37,2013-07-25 00:43:00,
2013-07-24 20:48:00,74.1,67.9,29.78,North,0,2.0,2.3,81,0.08,CLR,,0.08,WeatherDisplay:10.37,2013-07-25 00:48:00,
2013-07-24 20:53:00,73.9,67.7,29.78,North,0,2.0,2.3,81,0.08,CLR,,0.08,WeatherDisplay:10.37,2013-07-25 00:53:00,
2013-07-24 20:58:00,73.8,68.3,29.78,North,0,2.0,2.3,83,0.08,CLR,,0.08,WeatherDisplay:10.37,2013-07-25 00:58:00,
2013-07-24 21:03:00,73.4,67.9,29.79,North,0,2.0,2.3,83,0.08,CLR,,0.08,WeatherDisplay:10.37,2013-07-25 01:03:00,
2013-07-24 21:04:00,73.4,67.9,29.79,North,0,2.0,2.3,83,0.08,CLR,,0.08,WeatherDisplay:10.37,2013-07-25 01:04:00,
2013-07-24 21:09:00,72.9,67.4,29.79,North,0,2.0,2.3,83,0.07,CLR,,0.08,WeatherDisplay:10.37,2013-07-25 01:09:00,
2013-07-24 21:14:00,72.5,66.7,29.79,North,0,2.0,2.3,82,0.05,CLR,,0.08,WeatherDisplay:10.37,2013-07-25 01:14:00,
2013-07-24 21:19:00,72.1,66.3,29.79,North,0,2.0,2.3,82,0.02,CLR,,0.08,WeatherDisplay:10.37,2013-07-25 01:19:00,
2013-07-24 21:24:00,72.0,66.2,29.79,North,0,2.0,2.3,82,0.00,CLR,,0.08,WeatherDisplay:10.37,2013-07-25 01:24:00,
2013-07-24 21:29:00,71.6,65.8,29.79,North,0,2.0,2.3,82,0.00,CLR,,0.08,WeatherDisplay:10.37,2013-07-25 01:29:00,
2013-07-24 21:34:00,71.6,65.8,29.79,North,0,2.0,2.3,82,0.00,CLR,,0.08,WeatherDisplay:10.37,2013-07-25 01:34:00,
2013-07-24 21:39:00,71.2,65.5,29.80,North,0,2.0,2.3,82,0.00,CLR,,0.08,WeatherDisplay:10.37,2013-07-25 01:39:00,
2013-07-24 21:44:00,71.1,65.3,29.80,North,0,2.0,2.3,82,0.00,CLR,,0.08,WeatherDisplay:10.37,2013-07-25 01:44:00,
2013-07-24 21:49:00,70.9,65.5,29.80,NNE,22,1.1,2.3,83,0.00,CLR,,0.08,WeatherDisplay:10.37,2013-07-25 01:49:00,
2013-07-24 21:54:00,70.9,65.5,29.80,East,90,2.4,2.4,83,0.00,CLR,,0.08,WeatherDisplay:10.37,2013-07-25 01:54:00,
2013-07-24 21:59:00,70.7,65.3,29.80,NE,45,0.7,1.1,83,0.00,CLR,,0.08,WeatherDisplay:10.37,2013-07-25 01:59:00,
2013-07-24 22:04:00,70.5,65.1,29.80,NE,45,0.7,1.1,83,0.00,CLR,,0.08,WeatherDisplay:10.37,2013-07-25 02:04:00,
2013-07-24 22:09:00,70.5,65.4,29.80,NE,45,0.7,1.1,84,0.00,CLR,,0.08,WeatherDisplay:10.37,2013-07-25 02:09:00,
2013-07-24 22:14:00,70.3,65.3,29.80,NE,45,0.7,1.1,84,0.00,CLR,,0.08,WeatherDisplay:10.37,2013-07-25 02:14:00,
2013-07-24 22:19:00,70.2,65.1,29.80,NE,45,0.7,1.1,84,0.00,CLR,,0.08,WeatherDisplay:10.37,2013-07-25 02:19:00,
2013-07-24 22:24:00,69.8,64.7,29.80,NE,45,0.7,1.1,84,0.00,CLR,,0.08,WeatherDisplay:10.37,2013-07-25 02:24:00,
2013-07-24 22:29:00,69.6,64.6,29.80,NE,45,0.7,1.1,84,0.00,CLR,,0.08,WeatherDisplay:10.37,2013-07-25 02:29:00,
2013-07-24 22:34:00,69.4,64.4,29.81,NE,45,0.7,1.1,84,0.00,CLR,,0.08,WeatherDisplay:10.37,2013-07-25 02:34:00,
2013-07-24 22:39:00,69.4,64.4,29.81,NE,45,0.7,1.1,84,0.00,CLR,,0.08,WeatherDisplay:10.37,2013-07-25 02:39:00,
2013-07-24 22:44:00,69.1,64.4,29.81,NE,45,0.7,1.1,85,0.00,CLR,,0.08,WeatherDisplay:10.37,2013-07-25 02:44:00,
2013-07-24 22:49:00,68.9,64.2,29.81,NE,45,0.7,1.1,85,0.00,CLR,,0.08,WeatherDisplay:10.37,2013-07-25 02:49:00,
2013-07-24 22:54:00,68.7,63.7,29.82,NE,45,0.7,1.1,84,0.00,CLR,,0.08,WeatherDisplay:10.37,2013-07-25 02:54:00,
2013-07-24 22:59:00,68.7,63.7,29.82,NE,45,0.7,1.1,84,0.00,CLR,,0.08,WeatherDisplay:10.37,2013-07-25 02:59:00,
2013-07-24 23:04:00,68.7,64.0,29.82,NE,45,0.7,1.1,85,0.00,CLR,,0.08,WeatherDisplay:10.37,2013-07-25 03:04:00,
2013-07-24 23:09:00,68.5,63.8,29.82,NE,45,0.7,1.1,85,0.00,CLR,,0.08,WeatherDisplay:10.37,2013-07-25 03:09:00,
2013-07-24 23:10:00,68.7,64.0,29.82,NE,45,0.7,1.1,85,0.00,CLR,,0.08,WeatherDisplay:10.37,2013-07-25 03:10:00,
2013-07-24 23:14:00,68.7,64.0,29.82,NE,45,0.7,1.1,85,0.00,CLR,,0.08,WeatherDisplay:10.37,2013-07-25 03:14:00,
2013-07-24 23:19:00,68.7,64.0,29.82,NE,45,0.7,1.1,85,0.00,CLR,,0.08,WeatherDisplay:10.37,2013-07-25 03:19:00,
2013-07-24 23:49:00,68.7,64.0,29.83,North,0,0.0,1.1,85,0.00,CLR,,0.08,WeatherDisplay:10.37,2013-07-25 03:49:00,
2013-07-24 23:54:00,68.7,64.0,29.84,North,0,0.0,0.0,85,0.00,RA,,0.08,WeatherDisplay:10.37,2013-07-25 03:54:00,